createdAt,value
2017-12-09T00:01:18.468Z,8.10
2017-12-09T00:03:45.765Z,8.00
2017-12-09T00:06:13.102Z,7.60
2017-12-09T00:08:40.789Z,7.40
2017-12-09T00:11:08.107Z,6.90
2017-12-09T00:13:35.483Z,6.60
2017-12-09T00:16:03.150Z,6.60
2017-12-09T00:18:30.833Z,7.50
2017-12-09T00:20:58.460Z,7.40
2017-12-09T00:23:25.781Z,7.77
2017-12-09T00:25:53.119Z,7.10
2017-12-09T00:28:20.784Z,7.20
2017-12-09T00:30:48.408Z,7.10
2017-12-09T00:33:15.721Z,6.77
2017-12-09T00:35:43.449Z,6.90
2017-12-09T00:38:11.069Z,6.83
2017-12-09T00:40:38.429Z,7.60
2017-12-09T00:43:06.083Z,6.83
2017-12-09T00:45:33.556Z,8.00
2017-12-09T00:48:01.781Z,7.40
2017-12-09T00:50:29.174Z,8.53
2017-12-09T00:52:56.667Z,7.10
2017-12-09T00:55:23.990Z,7.60
2017-12-09T00:57:51.661Z,7.80
2017-12-09T01:00:18.988Z,7.80
2017-12-09T01:02:46.520Z,7.33
2017-12-09T01:05:13.896Z,7.57
2017-12-09T01:07:41.189Z,7.20
2017-12-09T01:10:08.553Z,5.90
2017-12-09T01:12:36.195Z,7.20
2017-12-09T01:15:03.877Z,7.70
2017-12-09T01:17:37.476Z,6.77
2017-12-09T01:20:04.933Z,6.23
2017-12-09T01:22:32.289Z,6.40
2017-12-09T01:24:59.954Z,5.80
2017-12-09T01:27:27.580Z,6.13
2017-12-09T01:29:55.260Z,5.60
2017-12-09T01:32:22.639Z,6.73
2017-12-09T01:34:50.074Z,5.70
2017-12-09T01:37:17.409Z,5.40
2017-12-09T01:39:45.112Z,5.60
2017-12-09T01:42:12.772Z,5.90
2017-12-09T01:44:40.414Z,5.67
2017-12-09T01:47:08.180Z,5.80
2017-12-09T01:49:39.316Z,5.53
2017-12-09T01:52:06.624Z,6.10
2017-12-09T01:54:33.956Z,7.07
2017-12-09T01:57:01.581Z,6.63
2017-12-09T01:59:29.265Z,6.67
2017-12-09T02:01:56.888Z,6.40
2017-12-09T02:04:24.662Z,7.10
2017-12-09T02:06:51.997Z,5.70
2017-12-09T02:09:19.453Z,6.97
2017-12-09T02:11:47.150Z,6.03
2017-12-09T02:14:14.477Z,6.70
2017-12-09T02:16:42.250Z,6.70
2017-12-09T02:19:09.923Z,6.57
2017-12-09T02:21:37.576Z,7.63
2017-12-09T02:24:05.260Z,7.10
2017-12-09T02:26:32.552Z,7.60
2017-12-09T02:29:03.497Z,8.23
2017-12-09T02:31:30.881Z,7.27
2017-12-09T02:33:58.385Z,7.20
2017-12-09T02:36:26.016Z,6.70
2017-12-09T02:38:53.319Z,6.53
2017-12-09T02:41:20.657Z,7.00
2017-12-09T02:43:48.149Z,5.83
2017-12-09T02:46:15.767Z,5.03
2017-12-09T02:48:43.452Z,6.47
2017-12-09T02:51:11.174Z,5.93
2017-12-09T02:53:38.488Z,5.20
2017-12-09T02:56:06.169Z,5.00
2017-12-09T02:58:33.858Z,5.00
2017-12-09T03:01:01.161Z,6.23
2017-12-09T03:03:28.480Z,4.70
2017-12-09T03:05:56.888Z,5.10
2017-12-09T03:08:24.197Z,5.20
2017-12-09T03:10:51.849Z,4.77
2017-12-09T03:13:19.140Z,4.90
2017-12-09T03:15:46.774Z,5.27
2017-12-09T03:18:14.069Z,3.97
2017-12-09T03:20:41.416Z,4.57
2017-12-09T03:23:08.713Z,5.00
2017-12-09T03:25:36.372Z,4.73
2017-12-09T03:28:04.056Z,5.00
2017-12-09T03:30:31.350Z,4.37
2017-12-09T03:32:58.672Z,5.07
2017-12-09T03:35:25.981Z,4.60
2017-12-09T03:37:53.663Z,4.73
2017-12-09T03:40:21.329Z,5.20
2017-12-09T03:42:48.634Z,4.90
2017-12-09T03:45:16.256Z,5.80
2017-12-09T03:47:43.709Z,5.43
2017-12-09T03:50:11.037Z,4.80
2017-12-09T03:52:38.417Z,4.10
2017-12-09T03:55:05.717Z,5.20
2017-12-09T03:57:33.068Z,5.10
2017-12-09T04:00:00.384Z,4.53
2017-12-09T04:02:27.733Z,4.40
2017-12-09T04:04:55.040Z,5.77
2017-12-09T04:07:22.344Z,5.33
2017-12-09T04:09:50.105Z,5.73
2017-12-09T04:12:17.400Z,5.50
2017-12-09T04:14:44.738Z,5.83
2017-12-09T04:17:12.452Z,5.60
2017-12-09T04:19:40.120Z,5.30
2017-12-09T04:22:07.805Z,6.20
2017-12-09T04:24:35.453Z,6.10
2017-12-09T04:27:02.791Z,5.90
2017-12-09T04:29:30.151Z,6.30
2017-12-09T04:31:57.734Z,6.70
2017-12-09T04:34:25.081Z,6.70
2017-12-09T04:36:52.389Z,6.83
2017-12-09T04:39:19.845Z,6.60
2017-12-09T04:41:47.636Z,6.67
2017-12-09T04:44:15.342Z,6.50
2017-12-09T04:46:42.969Z,7.57
2017-12-09T04:49:10.300Z,6.80
2017-12-09T04:51:38.024Z,8.03
2017-12-09T04:54:05.687Z,7.73
2017-12-09T04:56:33.308Z,7.63
2017-12-09T04:59:00.608Z,7.43
2017-12-09T05:01:28.240Z,7.53
2017-12-09T05:03:55.982Z,8.40
2017-12-09T05:06:23.304Z,8.17
2017-12-09T05:08:50.905Z,8.23
2017-12-09T05:11:18.241Z,8.30
2017-12-09T05:13:45.930Z,7.70
2017-12-09T05:16:13.260Z,7.80
2017-12-09T05:18:40.930Z,8.00
2017-12-09T05:21:08.244Z,8.10
2017-12-09T05:23:35.570Z,7.90
2017-12-09T05:26:03.184Z,8.10
2017-12-09T05:28:30.876Z,8.40
2017-12-09T05:30:58.181Z,8.47
2017-12-09T05:33:25.506Z,7.70
2017-12-09T05:35:52.814Z,8.57
2017-12-09T05:38:20.218Z,8.63
2017-12-09T05:40:47.885Z,9.13
2017-12-09T05:43:15.170Z,8.67
2017-12-09T05:45:42.568Z,9.60
2017-12-09T05:48:10.224Z,8.40
2017-12-09T05:50:37.561Z,9.83
2017-12-09T05:53:04.878Z,8.50
2017-12-09T05:55:32.242Z,9.00
2017-12-09T05:57:59.550Z,10.20
2017-12-09T06:00:27.219Z,10.30
2017-12-09T06:02:54.848Z,12.83
2017-12-09T06:05:22.157Z,9.37
2017-12-09T06:07:49.517Z,10.27
2017-12-09T06:10:16.816Z,9.43
2017-12-09T06:12:44.145Z,8.53
2017-12-09T06:15:11.813Z,9.90
2017-12-09T06:17:39.226Z,10.10
2017-12-09T06:20:06.752Z,8.80
2017-12-09T06:22:34.062Z,8.63
2017-12-09T06:25:01.772Z,9.33
2017-12-09T06:27:29.328Z,8.60
2017-12-09T06:29:56.644Z,9.13
2017-12-09T06:32:24.344Z,9.60
2017-12-09T06:34:51.673Z,9.40
2017-12-09T06:37:19.737Z,8.93
2017-12-09T06:39:47.947Z,8.93
2017-12-09T06:42:15.589Z,8.43
2017-12-09T06:44:43.252Z,9.57
2017-12-09T06:47:10.936Z,11.77
2017-12-09T06:49:38.577Z,10.20
2017-12-09T06:52:05.914Z,13.33
2017-12-09T06:54:33.293Z,12.00
2017-12-09T06:57:00.619Z,15.77
2017-12-09T06:59:28.104Z,16.20
2017-12-09T07:01:55.444Z,16.20
2017-12-09T07:04:23.116Z,16.87
2017-12-09T07:06:50.422Z,12.90
2017-12-09T07:09:17.762Z,8.10
2017-12-09T07:11:45.385Z,10.50
2017-12-09T07:14:12.874Z,8.43
2017-12-09T07:16:40.509Z,11.40
2017-12-09T07:19:07.833Z,9.77
2017-12-09T07:21:35.145Z,8.97
2017-12-09T07:24:02.769Z,8.90
2017-12-09T07:26:30.090Z,6.20
2017-12-09T07:28:57.394Z,8.23
2017-12-09T07:31:25.064Z,8.20
2017-12-09T07:33:52.688Z,7.90
2017-12-09T07:36:20.372Z,6.47
2017-12-09T07:38:47.675Z,7.53
2017-12-09T07:41:15.010Z,5.63
2017-12-09T07:43:42.626Z,5.77
2017-12-09T07:46:10.290Z,6.40
2017-12-09T07:48:37.977Z,6.63
2017-12-09T07:51:05.324Z,4.80
2017-12-09T07:53:32.688Z,6.10
2017-12-09T07:56:00.313Z,6.10
2017-12-09T07:58:27.644Z,5.50
2017-12-09T08:00:54.980Z,4.63
2017-12-09T08:03:22.316Z,4.70
2017-12-09T08:05:49.933Z,6.30
2017-12-09T08:08:17.605Z,4.77
2017-12-09T08:10:44.932Z,5.10
2017-12-09T08:13:12.236Z,4.90
2017-12-09T08:15:39.889Z,5.20
2017-12-09T08:18:07.192Z,4.67
2017-12-09T08:20:34.513Z,4.23
2017-12-09T08:23:01.919Z,4.73
2017-12-09T08:25:29.244Z,4.13
2017-12-09T08:27:56.874Z,4.67
2017-12-09T08:30:24.202Z,4.20
2017-12-09T08:32:51.686Z,4.90
2017-12-09T08:35:19.326Z,5.00
2017-12-09T08:37:47.006Z,4.00
2017-12-09T08:40:15.380Z,5.60
2017-12-09T08:42:42.717Z,4.93
2017-12-09T08:45:10.377Z,3.80
2017-12-09T08:47:38.159Z,5.13
2017-12-09T08:50:05.849Z,4.00
2017-12-09T08:52:33.464Z,5.07
2017-12-09T08:55:01.156Z,6.20
2017-12-09T08:57:28.462Z,5.20
2017-12-09T08:59:56.202Z,6.10
2017-12-09T09:02:23.512Z,5.10
2017-12-09T09:04:50.832Z,6.30
2017-12-09T09:07:18.555Z,6.40
2017-12-09T09:09:46.323Z,6.30
2017-12-09T09:12:13.993Z,6.80
2017-12-09T09:14:41.694Z,5.93
2017-12-09T09:17:09.387Z,6.80
2017-12-09T09:19:36.821Z,7.03
2017-12-09T09:22:04.684Z,6.20
2017-12-09T09:24:32.367Z,6.87
2017-12-09T09:26:59.687Z,4.23
2017-12-09T09:29:27.369Z,5.67
2017-12-09T09:31:55.025Z,5.13
2017-12-09T09:34:22.460Z,4.83
2017-12-09T09:36:50.144Z,4.43
2017-12-09T09:39:17.501Z,5.60
2017-12-09T09:41:44.813Z,5.20
2017-12-09T09:44:12.149Z,4.60
2017-12-09T09:46:39.675Z,4.37
2017-12-09T09:49:07.406Z,5.17
2017-12-09T09:51:34.709Z,5.03
2017-12-09T09:54:02.357Z,5.80
2017-12-09T09:56:29.668Z,4.77
2017-12-09T09:58:56.980Z,6.10
2017-12-09T10:01:24.632Z,5.20
2017-12-09T10:03:51.936Z,6.33
2017-12-09T10:06:19.262Z,5.50
2017-12-09T10:08:46.876Z,4.23
2017-12-09T10:11:14.192Z,5.57
2017-12-09T10:13:41.500Z,6.10
2017-12-09T10:16:08.805Z,5.23
2017-12-09T10:18:36.130Z,5.13
2017-12-09T10:21:03.793Z,7.40
2017-12-09T10:23:31.126Z,5.97
2017-12-09T10:25:58.418Z,5.10
2017-12-09T10:28:25.736Z,7.27
2017-12-09T10:30:53.044Z,5.73
2017-12-09T10:33:20.401Z,7.37
2017-12-09T10:35:47.718Z,7.00
2017-12-09T10:38:15.339Z,6.93
2017-12-09T10:40:43.013Z,7.20
2017-12-09T10:43:10.325Z,7.43
2017-12-09T10:45:37.640Z,5.80
2017-12-09T10:48:05.302Z,8.73
2017-12-09T10:50:32.664Z,8.50
2017-12-09T10:53:00.288Z,9.43
2017-12-09T10:55:27.692Z,7.93
2017-12-09T10:57:55.352Z,7.90
2017-12-09T11:00:23.026Z,8.10
2017-12-09T11:02:50.426Z,9.10
2017-12-09T11:05:17.742Z,9.17
2017-12-09T11:07:45.126Z,8.10
2017-12-09T11:10:12.818Z,8.37
2017-12-09T11:12:40.455Z,7.70
2017-12-09T11:15:08.139Z,9.73
2017-12-09T11:17:35.449Z,8.67
2017-12-09T11:20:03.153Z,7.47
2017-12-09T11:22:30.449Z,7.90
2017-12-09T11:24:57.773Z,8.20
2017-12-09T11:27:25.393Z,9.17
2017-12-09T11:29:53.099Z,8.97
2017-12-09T11:32:20.749Z,9.43
2017-12-09T11:34:48.394Z,9.50
2017-12-09T11:37:15.710Z,9.20
2017-12-09T11:39:43.305Z,9.93
2017-12-09T11:42:10.716Z,9.10
2017-12-09T11:44:38.048Z,10.40
2017-12-09T11:47:05.690Z,10.60
2017-12-09T11:49:33.476Z,10.80
2017-12-09T11:52:00.836Z,11.57
2017-12-09T11:54:28.454Z,11.73
2017-12-09T11:56:55.820Z,12.13
2017-12-09T11:59:23.196Z,12.07
2017-12-09T12:01:50.817Z,12.50
2017-12-09T12:04:18.206Z,11.97
2017-12-09T12:06:45.571Z,9.53
2017-12-09T12:09:13.212Z,11.57
2017-12-09T12:11:40.516Z,11.30
2017-12-09T12:14:07.845Z,12.40
2017-12-09T12:16:35.464Z,12.77
2017-12-09T12:19:03.189Z,11.30
2017-12-09T12:21:30.538Z,12.10
2017-12-09T12:23:57.844Z,12.00
2017-12-09T12:26:25.169Z,12.00
2017-12-09T12:28:52.848Z,10.63
2017-12-09T12:31:20.160Z,11.20
2017-12-09T12:33:47.491Z,10.77
2017-12-09T12:36:15.141Z,9.63
2017-12-09T12:38:42.808Z,9.47
2017-12-09T12:41:10.552Z,10.90
2017-12-09T12:43:37.920Z,10.03
2017-12-09T12:46:05.486Z,10.93
2017-12-09T12:48:33.165Z,10.30
2017-12-09T12:51:00.805Z,8.97
2017-12-09T12:53:28.652Z,9.53
2017-12-09T12:55:56.825Z,9.60
2017-12-09T12:58:24.142Z,9.67
2017-12-09T13:00:51.504Z,9.83
2017-12-09T13:03:18.901Z,9.30
2017-12-09T13:05:46.196Z,9.13
2017-12-09T13:08:13.523Z,8.47
2017-12-09T13:10:41.258Z,7.90
2017-12-09T13:13:08.853Z,7.73
2017-12-09T13:15:36.185Z,6.90
2017-12-09T13:18:03.508Z,6.90
2017-12-09T13:20:30.890Z,5.93
2017-12-09T13:22:58.245Z,7.07
2017-12-09T13:25:25.565Z,7.67
2017-12-09T13:27:53.258Z,7.10
2017-12-09T13:30:20.634Z,7.00
2017-12-09T13:32:48.260Z,6.50
2017-12-09T13:35:16.012Z,6.70
2017-12-09T13:37:43.729Z,5.20
2017-12-09T13:40:11.502Z,6.63
2017-12-09T13:42:39.309Z,6.10
2017-12-09T13:45:07.014Z,5.80
2017-12-09T13:47:34.504Z,6.33
2017-12-09T13:50:01.963Z,7.30
2017-12-09T13:52:29.433Z,6.60
2017-12-09T13:54:56.781Z,6.00
2017-12-09T13:57:24.084Z,7.43
2017-12-09T13:59:51.764Z,7.30
2017-12-09T14:02:19.459Z,6.10
2017-12-09T14:04:46.886Z,6.63
2017-12-09T14:07:14.552Z,5.03
2017-12-09T14:09:42.218Z,5.97
2017-12-09T14:12:09.898Z,5.10
2017-12-09T14:14:37.241Z,6.63
2017-12-09T14:17:04.902Z,6.77
2017-12-09T14:19:32.716Z,7.20
2017-12-09T14:22:00.123Z,7.03
2017-12-09T14:24:27.797Z,6.17
2017-12-09T14:26:55.514Z,6.47
2017-12-09T14:29:22.924Z,6.50
2017-12-09T14:31:50.280Z,7.37
2017-12-09T14:34:17.849Z,6.63
2017-12-09T14:36:45.220Z,6.93
2017-12-09T14:39:12.693Z,7.13
2017-12-09T14:41:40.017Z,6.77
2017-12-09T14:44:07.711Z,5.63
2017-12-09T14:46:35.387Z,6.53
2017-12-09T14:49:03.165Z,6.77
2017-12-09T14:51:30.821Z,6.17
2017-12-09T14:53:58.519Z,5.20
2017-12-09T14:56:25.967Z,5.50
2017-12-09T14:58:53.331Z,6.27
2017-12-09T15:01:21.067Z,5.90
2017-12-09T15:03:48.749Z,5.83
2017-12-09T15:06:16.106Z,5.90
2017-12-09T15:08:43.507Z,4.70
2017-12-09T15:11:11.265Z,5.93
2017-12-09T15:13:38.646Z,4.40
2017-12-09T15:16:06.282Z,5.63
2017-12-09T15:18:33.621Z,4.80
2017-12-09T15:21:01.185Z,4.60
2017-12-09T15:23:28.972Z,4.97
2017-12-09T15:25:56.328Z,4.63
2017-12-09T15:28:24.039Z,4.70
2017-12-09T15:30:51.400Z,4.90
2017-12-09T15:33:19.120Z,4.90
2017-12-09T15:35:46.732Z,4.40
2017-12-09T15:38:14.224Z,4.90
2017-12-09T15:40:41.574Z,4.00
2017-12-09T15:43:08.956Z,4.90
2017-12-09T15:45:36.277Z,4.33
2017-12-09T15:48:03.954Z,4.83
2017-12-09T15:50:31.666Z,3.53
2017-12-09T15:52:59.373Z,4.97
2017-12-09T15:55:26.739Z,4.83
2017-12-09T15:57:54.114Z,5.00
2017-12-09T16:00:21.832Z,5.73
2017-12-09T16:02:49.654Z,5.37
2017-12-09T16:05:17.012Z,5.20
2017-12-09T16:07:44.692Z,5.13
2017-12-09T16:10:12.446Z,5.73
2017-12-09T16:12:39.820Z,6.07
2017-12-09T16:15:07.730Z,6.20
2017-12-09T16:17:35.348Z,5.83
2017-12-09T16:20:03.046Z,6.70
2017-12-09T16:22:30.454Z,6.73
2017-12-09T16:24:58.182Z,6.97
2017-12-09T16:27:25.872Z,6.93
2017-12-09T16:29:53.206Z,7.10
2017-12-09T16:32:20.917Z,6.70
2017-12-09T16:34:48.671Z,7.50
2017-12-09T16:37:16.408Z,7.00
2017-12-09T16:39:43.753Z,8.00
2017-12-09T16:42:11.403Z,7.47
2017-12-09T16:44:39.080Z,7.37
2017-12-09T16:47:06.458Z,7.70
2017-12-09T16:49:34.105Z,7.00
2017-12-09T16:52:01.526Z,7.63
2017-12-09T16:54:29.206Z,8.60
2017-12-09T16:56:56.856Z,8.00
2017-12-09T16:59:24.580Z,7.03
2017-12-09T17:01:52.309Z,7.80
2017-12-09T17:04:19.720Z,8.13
2017-12-09T17:06:47.412Z,7.87
2017-12-09T17:09:15.077Z,7.87
2017-12-09T17:11:42.661Z,7.47
2017-12-09T17:14:10.078Z,8.00
2017-12-09T17:16:37.455Z,8.40
2017-12-09T17:19:04.866Z,8.00
2017-12-09T17:21:32.268Z,7.90
2017-12-09T17:23:59.633Z,8.63
2017-12-09T17:26:27.069Z,9.13
2017-12-09T17:28:54.716Z,8.00
2017-12-09T17:31:22.360Z,7.23
2017-12-09T17:33:50.097Z,8.63
2017-12-09T17:36:17.431Z,8.27
2017-12-09T17:38:45.177Z,8.30
2017-12-09T17:41:12.529Z,8.63
2017-12-09T17:43:39.908Z,8.90
2017-12-09T17:46:07.380Z,9.00
2017-12-09T17:48:35.136Z,8.37
2017-12-09T17:51:02.524Z,9.17
2017-12-09T18:06:47.607Z,9.07
2017-12-09T18:09:20.788Z,9.17
2017-12-09T18:11:53.578Z,9.93
2017-12-09T18:14:21.296Z,8.43
2017-12-09T18:16:48.698Z,8.70
2017-12-09T18:19:16.369Z,8.47
2017-12-09T18:21:43.784Z,8.57
2017-12-09T18:24:11.170Z,8.17
2017-12-09T18:26:38.852Z,9.50
2017-12-09T18:29:06.225Z,9.10
2017-12-09T18:31:33.961Z,10.50
2017-12-09T18:34:01.633Z,8.83
2017-12-09T18:36:28.999Z,10.50
2017-12-09T18:38:56.315Z,8.37
2017-12-09T18:41:24.038Z,11.67
2017-12-09T18:43:51.515Z,9.83
2017-12-09T18:46:18.904Z,11.77
2017-12-09T18:48:46.536Z,10.63
2017-12-09T18:51:14.278Z,10.43
2017-12-09T18:53:41.660Z,10.07
2017-12-09T18:56:09.322Z,10.63
2017-12-09T18:58:36.702Z,10.77
2017-12-09T19:01:04.349Z,10.57
2017-12-09T19:03:32.052Z,11.13
2017-12-09T19:05:59.417Z,11.73
2017-12-09T19:08:27.191Z,11.37
2017-12-09T19:10:54.881Z,11.20
2017-12-09T19:13:22.542Z,11.50
2017-12-09T19:15:49.889Z,10.40
2017-12-09T19:18:17.188Z,10.80
2017-12-09T19:20:44.534Z,11.60
2017-12-09T19:23:12.153Z,10.03
2017-12-09T19:25:39.473Z,10.17
2017-12-09T19:28:06.789Z,10.33
2017-12-09T19:30:34.413Z,7.90
2017-12-09T19:33:02.076Z,9.77
2017-12-09T19:35:29.736Z,8.93
2017-12-09T19:37:57.108Z,9.00
2017-12-09T19:40:24.745Z,9.17
2017-12-09T19:42:52.481Z,9.13
2017-12-09T19:45:19.785Z,10.67
2017-12-09T19:47:47.148Z,10.03
2017-12-09T19:50:14.784Z,9.70
2017-12-09T19:52:42.188Z,10.93
2017-12-09T19:55:09.920Z,11.20
2017-12-09T19:57:37.577Z,9.93
2017-12-09T20:00:04.892Z,9.70
2017-12-09T20:02:32.352Z,9.80
2017-12-09T20:04:59.673Z,10.30
2017-12-09T20:07:27.282Z,9.27
2017-12-09T20:09:54.682Z,10.90
2017-12-09T20:12:22.033Z,10.23
2017-12-09T20:14:49.626Z,9.10
2017-12-09T20:17:17.228Z,11.30
2017-12-09T20:19:44.573Z,10.07
2017-12-09T20:22:12.228Z,9.53
2017-12-09T20:24:39.789Z,10.00
2017-12-09T20:27:07.229Z,12.10
2017-12-09T20:29:34.642Z,10.13
2017-12-09T20:32:02.376Z,10.37
2017-12-09T20:34:29.688Z,11.23
2017-12-09T20:36:57.009Z,12.30
2017-12-09T20:39:24.645Z,10.77
2017-12-09T20:41:52.008Z,11.30
2017-12-09T20:44:19.627Z,12.40
2017-12-09T20:46:46.949Z,12.60
2017-12-09T20:49:14.595Z,11.47
2017-12-09T20:51:41.933Z,12.40
2017-12-09T20:54:09.312Z,12.60
2017-12-09T20:56:36.984Z,13.23
2017-12-09T20:59:04.600Z,12.80
2017-12-09T21:01:32.041Z,10.93
2017-12-09T21:03:59.734Z,12.70
2017-12-09T21:06:27.073Z,11.90
2017-12-09T21:08:54.820Z,12.57
2017-12-09T21:11:22.220Z,12.67
2017-12-09T21:13:49.547Z,11.53
2017-12-09T21:16:16.877Z,13.80
2017-12-09T21:18:44.682Z,12.87
2017-12-09T21:21:11.986Z,12.63
2017-12-09T21:23:39.316Z,11.33
2017-12-09T21:26:07.073Z,10.93
2017-12-09T21:28:34.417Z,10.63
2017-12-09T21:31:02.071Z,9.93
2017-12-09T21:33:29.388Z,9.73
2017-12-09T21:35:56.702Z,11.30
2017-12-09T21:38:24.332Z,10.27
2017-12-09T21:40:51.641Z,11.50
2017-12-09T21:43:19.234Z,10.97
2017-12-09T21:45:46.732Z,12.77
2017-12-09T21:48:15.204Z,11.13
2017-12-09T21:50:42.852Z,10.40
2017-12-09T21:53:10.558Z,11.27
2017-12-09T21:55:37.905Z,11.33
2017-12-09T21:58:05.529Z,10.43
2017-12-09T22:00:32.912Z,10.67
2017-12-09T22:03:00.581Z,10.33
2017-12-09T22:05:28.209Z,10.87
2017-12-09T22:07:56.767Z,9.57
2017-12-09T22:10:24.274Z,11.13
2017-12-09T22:12:51.916Z,11.40
2017-12-09T22:15:19.573Z,11.37
2017-12-09T22:17:46.973Z,11.60
2017-12-09T22:20:14.611Z,10.97
2017-12-09T22:22:42.249Z,11.03
2017-12-09T22:25:09.626Z,11.40
2017-12-09T22:27:36.973Z,11.63
2017-12-09T22:30:04.680Z,11.20
2017-12-09T22:32:32.007Z,11.57
2017-12-09T22:34:59.725Z,10.97
2017-12-09T22:37:27.050Z,8.70
2017-12-09T22:39:54.759Z,9.87
2017-12-09T22:42:22.413Z,9.77
2017-12-09T22:44:49.812Z,11.70
2017-12-09T22:47:17.154Z,9.97
2017-12-09T22:49:44.460Z,11.00
2017-12-09T22:52:11.853Z,10.33
2017-12-09T22:54:39.480Z,10.23
2017-12-09T22:57:06.929Z,9.47
2017-12-09T22:59:34.229Z,10.20
2017-12-09T23:02:01.868Z,9.93
2017-12-09T23:04:29.172Z,10.93
2017-12-09T23:06:56.489Z,9.37
2017-12-09T23:09:23.821Z,11.30
2017-12-09T23:11:51.157Z,12.03
2017-12-09T23:14:18.822Z,11.70
2017-12-09T23:16:46.204Z,13.50
2017-12-09T23:19:13.848Z,11.33
2017-12-09T23:21:41.173Z,12.87
2017-12-09T23:24:08.852Z,12.20
2017-12-09T23:26:36.159Z,12.73
2017-12-09T23:29:03.498Z,12.23
2017-12-09T23:31:30.844Z,11.30
2017-12-09T23:33:58.502Z,11.10
2017-12-09T23:36:25.872Z,11.70
2017-12-09T23:38:53.549Z,11.03
2017-12-09T23:41:21.273Z,12.90
2017-12-09T23:43:48.698Z,12.10
2017-12-09T23:46:16.097Z,12.23
2017-12-09T23:48:43.838Z,11.60
2017-12-09T23:51:11.601Z,11.77
2017-12-09T23:53:38.933Z,12.27
2017-12-09T23:56:06.323Z,12.87
2017-12-09T23:58:33.897Z,12.40
